Time;durP1;ratioP1;P1;durP2;ratioP2;P2;SDS_P1;SDS_P2;PMS_P1;PMS_P2;Temp;Humidity;BMP_temperature;BMP_pressure;BME280_temperature;BME280_humidity;BME280_pressure;Samples;Min_cycle;Max_cycle;Signal;HPM_P1;HPM_P2
2021/12/09 00:01:24;;;;;;;182.57;68.75;;;;;;;-2.88;75.33;94709.88;4978229;28;20042;-86
2021/12/09 00:03:56;;;;;;;173.13;67.78;;;;;;;-2.57;75.56;94776.72;4977943;28;20044;-85
2021/12/09 00:06:26;;;;;;;275.42;110.75;;;;;;;-2.52;75.31;94767.34;4976312;28;20043;-85
2021/12/09 00:08:54;;;;;;;298.35;110.70;;;;;;;-3.07;74.55;94702.91;4952825;28;20075;-86
2021/12/09 00:11:20;;;;;;;273.73;104.65;;;;;;;-2.94;75.39;94726.25;4962303;28;20031;-85
2021/12/09 00:13:46;;;;;;;276.75;106.75;;;;;;;-2.96;75.36;94702.28;4954808;28;20050;-85
2021/12/09 00:16:11;;;;;;;251.35;104.28;;;;;;;-3.32;74.06;94617.94;4956798;28;20122;-85
2021/12/09 00:18:37;;;;;;;268.42;103.28;;;;;;;-2.17;74.21;94830.19;4965510;28;20047;-85
2021/12/09 00:21:02;;;;;;;266.48;104.10;;;;;;;-5.42;74.20;94321.03;4951378;29;20039;-85
2021/12/09 00:23:28;;;;;;;252.52;98.65;;;;;;;-2.00;74.50;94848.75;4938754;29;20150;-85
2021/12/09 00:25:54;;;;;;;235.48;90.93;;;;;;;-2.17;74.84;94827.59;4938529;29;20054;-85
2021/12/09 00:28:19;;;;;;;246.15;94.32;;;;;;;-3.08;75.31;94722.06;4938489;29;20047;-85
2021/12/09 00:30:45;;;;;;;255.55;95.90;;;;;;;-2.68;75.02;94759.16;4938435;29;20520;-86
2021/12/09 00:33:11;;;;;;;220.80;91.20;;;;;;;-2.50;75.97;94855.41;4956038;29;20043;-86
2021/12/09 00:35:49;;;;;;;165.13;67.13;;;;;;;-5.12;75.51;94383.50;4937863;29;20054;-85
2021/12/09 00:38:32;;;;;;;129.30;51.42;;;;;;;-2.03;76.46;94826.56;4929780;29;20047;-85
2021/12/09 00:40:58;;;;;;;101.80;43.67;;;;;;;-2.63;77.01;94731.59;4936994;29;20124;-85
2021/12/09 00:43:23;;;;;;;95.75;42.45;;;;;;;-2.91;77.06;94676.56;4954948;29;20134;-85
2021/12/09 00:45:49;;;;;;;106.18;44.88;;;;;;;-2.44;77.18;94729.97;4936274;29;20047;-86
2021/12/09 00:48:14;;;;;;;97.75;43.67;;;;;;;-4.45;77.38;94445.44;4936510;29;20039;-86
2021/12/09 00:50:41;;;;;;;96.22;42.28;;;;;;;-3.19;77.60;94630.09;4937427;29;20090;-85
2021/12/09 00:53:07;;;;;;;93.35;41.10;;;;;;;-4.40;77.70;94434.47;4937394;29;20098;-86
2021/12/09 00:55:33;;;;;;;105.35;40.20;;;;;;;-2.53;77.38;94719.00;4939083;28;20042;-87
2021/12/09 00:57:58;;;;;;;83.90;38.90;;;;;;;-1.80;77.40;94807.88;4973795;28;20064;-86
2021/12/09 01:00:24;;;;;;;92.13;37.63;;;;;;;-3.29;78.25;94593.41;4964299;28;20079;-86
2021/12/09 01:02:50;;;;;;;82.35;39.33;;;;;;;-4.18;77.74;94453.19;4952547;29;20042;-86
2021/12/09 01:05:16;;;;;;;96.47;41.75;;;;;;;-2.33;77.43;94721.53;4960424;28;20042;-88
2021/12/09 01:07:41;;;;;;;103.75;44.22;;;;;;;-2.25;77.59;94749.06;4969104;28;20482;-87
2021/12/09 01:10:11;;;;;;;123.15;50.03;;;;;;;-3.46;77.24;94551.56;4989535;28;20081;-87
2021/12/09 01:12:37;;;;;;;179.73;68.85;;;;;;;-3.96;76.46;94509.75;4973423;28;20088;-88
2021/12/09 01:15:06;;;;;;;204.52;78.45;;;;;;;-5.64;76.10;94236.91;4972315;28;20038;-87
2021/12/09 01:17:32;;;;;;;233.02;87.97;;;;;;;-2.90;76.20;94691.13;4971846;28;20133;-87
2021/12/09 01:19:57;;;;;;;226.52;84.65;;;;;;;-4.83;76.17;94398.66;4989863;28;20513;-87
2021/12/09 01:22:30;;;;;;;211.05;81.93;;;;;;;-3.82;76.49;94655.66;4989594;28;20047;-87
2021/12/09 01:24:55;;;;;;;177.23;69.82;;;;;;;-3.06;76.38;94704.53;4989885;28;20069;-87
2021/12/09 01:27:21;;;;;;;177.70;67.43;;;;;;;-3.02;76.37;94666.78;4987967;28;20453;-87
2021/12/09 01:29:53;;;;;;;160.90;65.15;;;;;;;-2.38;76.84;94825.25;4971318;28;20121;-87
2021/12/09 01:32:25;;;;;;;160.10;64.65;;;;;;;-3.47;76.87;94627.72;4972148;28;20076;-87
2021/12/09 01:34:50;;;;;;;157.15;60.55;;;;;;;-3.02;76.81;94727.25;4972134;28;20031;-87
2021/12/09 01:37:16;;;;;;;156.32;62.80;;;;;;;-3.01;76.91;94726.25;4987976;28;20042;-87
2021/12/09 01:39:41;;;;;;;162.90;66.35;;;;;;;-3.18;77.51;94731.03;4971781;28;20033;-87
2021/12/09 01:42:07;;;;;;;173.10;64.15;;;;;;;-4.00;78.10;94616.56;4972149;28;20467;-87
2021/12/09 01:44:33;;;;;;;156.88;61.30;;;;;;;-6.62;77.77;94194.38;4989433;28;20058;-87
2021/12/09 01:46:58;;;;;;;159.55;62.55;;;;;;;-2.70;77.86;94826.06;4989561;28;20042;-87
2021/12/09 01:49:24;;;;;;;145.35;58.35;;;;;;;-3.95;77.98;94606.38;4989320;28;20042;-87
2021/12/09 01:51:49;;;;;;;156.13;61.70;;;;;;;-3.40;77.83;94640.69;4971537;28;20042;-88
2021/12/09 01:54:16;;;;;;;157.55;61.40;;;;;;;-2.58;77.49;94757.75;4984256;28;20047;-87
2021/12/09 01:56:41;;;;;;;150.70;58.67;;;;;;;-2.85;77.15;94714.66;4969501;28;20506;-87
2021/12/09 01:59:08;;;;;;;150.13;59.40;;;;;;;-3.37;77.33;94640.31;4951626;28;20062;-88
2021/12/09 02:01:34;;;;;;;151.98;59.38;;;;;;;-2.36;77.42;94813.63;4951572;28;20078;-87
2021/12/09 02:04:02;;;;;;;143.18;56.88;;;;;;;-3.22;76.90;94680.59;4951900;28;20039;-87
2021/12/09 02:06:28;;;;;;;153.50;58.75;;;;;;;-3.88;76.54;94563.94;4952179;28;20050;-88
2021/12/09 02:08:55;;;;;;;156.48;56.75;;;;;;;-2.52;77.29;94818.47;4969791;28;20042;-87
2021/12/09 02:11:21;;;;;;;153.18;59.25;;;;;;;-3.43;77.28;94665.22;4952231;28;20035;-87
2021/12/09 02:13:50;;;;;;;148.00;58.00;;;;;;;-3.19;77.04;94697.53;4970112;28;20039;-87
2021/12/09 02:16:15;;;;;;;145.48;56.83;;;;;;;-4.68;76.87;94445.03;4961863;28;20070;-87
2021/12/09 02:18:41;;;;;;;159.02;60.75;;;;;;;-2.60;76.87;94774.53;4952021;28;20529;-88
2021/12/09 02:21:21;;;;;;;149.05;57.40;;;;;;;-2.21;76.96;94803.00;4952403;28;20070;-87
2021/12/09 02:24:00;;;;;;;153.00;56.10;;;;;;;-3.48;76.97;94615.75;4951879;28;20043;-87
2021/12/09 02:26:29;;;;;;;147.32;55.28;;;;;;;-5.26;76.58;94371.53;4946377;28;20078;-88
2021/12/09 02:28:56;;;;;;;134.85;53.47;;;;;;;-2.52;76.95;94827.06;4951957;28;20043;-88
2021/12/09 02:31:23;;;;;;;129.68;53.20;;;;;;;-5.70;76.84;94410.75;4952427;28;20129;-87
2021/12/09 02:33:49;;;;;;;132.90;52.75;;;;;;;-3.43;78.20;94784.47;4951762;28;20073;-88
2021/12/09 02:36:14;;;;;;;124.57;52.08;;;;;;;-2.91;78.55;94892.72;4951877;28;20487;-87
2021/12/09 02:38:47;;;;;;;126.47;52.05;;;;;;;-5.14;77.68;94540.59;4952517;28;20130;-88
2021/12/09 02:41:17;;;;;;;146.23;55.67;;;;;;;-3.20;78.28;94784.91;4951447;28;20501;-88
2021/12/09 02:43:45;;;;;;;133.82;52.58;;;;;;;-2.81;78.74;94833.44;4952109;28;20063;-88
2021/12/09 02:46:11;;;;;;;128.30;52.35;;;;;;;-2.71;78.93;94825.25;4952197;28;20409;-88
2021/12/09 02:48:37;;;;;;;127.85;52.45;;;;;;;-4.15;78.06;94577.09;4969977;28;20101;-87
2021/12/09 02:51:05;;;;;;;121.05;50.65;;;;;;;-3.59;78.00;94650.06;4970177;28;20050;-88
2021/12/09 02:53:31;;;;;;;115.55;50.22;;;;;;;-3.55;77.43;94638.31;4956666;28;20042;-88
2021/12/09 02:55:57;;;;;;;123.18;46.60;;;;;;;-3.30;77.14;94722.28;4971474;28;20081;-88
2021/12/09 02:58:23;;;;;;;117.95;48.10;;;;;;;-3.24;77.69;94686.97;4989423;28;20098;-88
2021/12/09 03:01:00;;;;;;;130.30;53.15;;;;;;;-2.51;77.91;94814.84;4973785;28;20042;-85
2021/12/09 03:03:27;;;;;;;117.97;52.30;;;;;;;-3.32;77.37;94692.34;4992562;28;20038;-85
2021/12/09 03:05:55;;;;;;;128.77;54.03;;;;;;;-2.42;77.20;94824.81;4973046;28;20133;-85
2021/12/09 03:08:33;;;;;;;118.70;53.53;;;;;;;-3.16;76.69;94712.69;4989683;28;20038;-85
2021/12/09 03:11:02;;;;;;;123.18;50.55;;;;;;;-2.79;76.34;94758.78;4971435;28;20050;-86
2021/12/09 03:13:27;;;;;;;122.82;50.38;;;;;;;-3.27;76.43;94684.75;4988866;28;20046;-85
2021/12/09 03:15:53;;;;;;;118.53;49.92;;;;;;;-2.28;76.73;94796.22;4988429;28;20043;-85
2021/12/09 03:18:18;;;;;;;122.85;50.20;;;;;;;-2.21;76.69;94817.81;4988642;28;20046;-85
2021/12/09 03:20:44;;;;;;;127.28;49.10;;;;;;;-5.73;76.30;94311.22;4970872;28;20043;-85
2021/12/09 03:23:09;;;;;;;128.27;49.75;;;;;;;-5.79;76.41;94247.41;4956981;28;20349;-85
2021/12/09 03:25:35;;;;;;;116.20;49.78;;;;;;;-2.66;76.49;94760.53;4967948;28;20596;-85
2021/12/09 03:28:00;;;;;;;120.35;49.88;;;;;;;-3.01;76.52;94767.75;4947860;28;20059;-85
2021/12/09 03:30:26;;;;;;;120.18;50.70;;;;;;;-3.28;77.20;94766.94;4950574;28;20053;-86
2021/12/09 03:32:52;;;;;;;129.55;53.95;;;;;;;-2.90;77.92;94794.91;4942832;28;20517;-86
2021/12/09 03:35:18;;;;;;;130.15;52.85;;;;;;;-2.58;78.88;94840.00;4943704;29;20523;-87
2021/12/09 03:37:43;;;;;;;128.57;52.83;;;;;;;-3.14;78.96;94714.09;4949471;29;20075;-85
2021/12/09 03:40:11;;;;;;;120.97;51.97;;;;;;;-3.46;78.27;94641.50;4933760;29;20059;-85
2021/12/09 03:42:37;;;;;;;133.85;52.97;;;;;;;-2.14;78.23;94816.00;4950967;29;20047;-85
2021/12/09 03:45:04;;;;;;;121.47;50.97;;;;;;;-2.07;78.42;94819.38;4932457;29;20061;-85
2021/12/09 03:47:30;;;;;;;121.10;53.90;;;;;;;-4.67;77.49;94403.44;4949504;29;20040;-85
2021/12/09 03:49:56;;;;;;;123.32;51.47;;;;;;;-2.89;77.74;94664.16;4932089;29;20155;-85
2021/12/09 03:52:22;;;;;;;130.13;53.08;;;;;;;-1.95;77.81;94796.94;4951968;28;20050;-85
2021/12/09 03:54:48;;;;;;;129.15;52.28;;;;;;;-7.04;77.47;94035.59;4935599;29;20118;-85
2021/12/09 03:57:14;;;;;;;117.15;51.90;;;;;;;-1.82;78.35;94845.47;4952827;29;20054;-85
2021/12/09 03:59:42;;;;;;;124.72;52.78;;;;;;;-2.45;78.25;94764.72;4951255;29;20071;-85
2021/12/09 04:02:08;;;;;;;114.57;48.92;;;;;;;-2.11;78.47;94818.19;4963029;28;20050;-85
2021/12/09 04:04:33;;;;;;;112.63;47.05;;;;;;;-2.90;78.30;94723.03;4954715;28;20038;-85
2021/12/09 04:06:59;;;;;;;113.25;49.63;;;;;;;-3.17;78.59;94675.59;4955802;28;20592;-85
2021/12/09 04:09:25;;;;;;;121.65;50.83;;;;;;;-2.85;78.50;94699.91;4972915;28;20038;-85
2021/12/09 04:11:52;;;;;;;136.60;54.10;;;;;;;-3.39;78.19;94655.25;4973038;28;20049;-85
2021/12/09 04:14:19;;;;;;;130.27;53.72;;;;;;;-3.16;78.41;94651.25;4955050;28;20528;-85
2021/12/09 04:16:45;;;;;;;126.35;49.35;;;;;;;-2.77;77.94;94709.25;4954240;28;20589;-85
2021/12/09 04:19:11;;;;;;;125.65;52.55;;;;;;;-2.87;78.03;94703.69;4971662;28;20026;-86
2021/12/09 04:21:37;;;;;;;126.95;52.78;;;;;;;-3.31;77.62;94622.13;4971331;28;20038;-86
2021/12/09 04:24:08;;;;;;;119.00;51.13;;;;;;;-1.99;78.05;94808.78;4971086;28;20043;-85
2021/12/09 04:26:46;;;;;;;135.40;53.10;;;;;;;-3.31;78.12;94665.44;4971048;28;20035;-85
2021/12/09 04:29:13;;;;;;;127.75;52.85;;;;;;;-2.87;77.68;94690.72;4953309;28;20046;-86
2021/12/09 04:31:39;;;;;;;127.90;52.72;;;;;;;-2.16;77.83;94792.81;4953201;28;20471;-85
2021/12/09 04:34:05;;;;;;;114.30;51.35;;;;;;;-2.50;77.81;94704.78;4970041;28;20478;-85
2021/12/09 04:36:31;;;;;;;111.78;48.88;;;;;;;-1.89;77.86;94813.50;4952793;28;20038;-86
2021/12/09 04:38:56;;;;;;;96.45;42.50;;;;;;;-2.29;77.84;94743.50;4970971;28;20039;-86
2021/12/09 04:41:22;;;;;;;112.68;46.95;;;;;;;-2.84;77.77;94666.97;4953077;28;20133;-86
2021/12/09 04:43:48;;;;;;;108.28;48.10;;;;;;;-2.42;78.20;94759.91;4970348;28;20717;-86
2021/12/09 04:46:15;;;;;;;113.15;47.88;;;;;;;-2.04;78.15;94787.78;4953278;28;20050;-86
2021/12/09 04:48:41;;;;;;;103.95;45.20;;;;;;;-2.04;78.28;94767.00;4952704;28;20430;-86
2021/12/09 04:51:07;;;;;;;104.03;46.50;;;;;;;-1.77;78.21;94838.69;4970628;28;20039;-86
2021/12/09 04:53:33;;;;;;;108.35;45.70;;;;;;;-1.44;78.03;94859.34;4962957;28;20057;-85
2021/12/09 04:55:59;;;;;;;106.70;45.80;;;;;;;-2.58;78.18;94699.81;4966193;28;20441;-85
2021/12/09 04:58:25;;;;;;;105.80;45.83;;;;;;;-2.40;77.73;94737.13;4964371;28;20340;-86
2021/12/09 05:00:53;;;;;;;102.97;45.33;;;;;;;-4.09;78.19;94504.59;4965588;28;20035;-86
2021/12/09 05:03:19;;;;;;;100.20;46.42;;;;;;;-2.56;78.58;94750.56;4968088;28;20129;-86
2021/12/09 05:05:49;;;;;;;107.65;45.65;;;;;;;-1.97;78.19;94791.16;4963821;28;20205;-86
2021/12/09 05:08:20;;;;;;;106.70;45.22;;;;;;;-1.43;78.41;94854.94;4965704;28;20050;-86
2021/12/09 05:10:55;;;;;;;110.18;46.17;;;;;;;-1.45;78.33;94862.94;4956880;28;20202;-86
2021/12/09 05:13:31;;;;;;;104.20;46.58;;;;;;;-2.43;78.04;94700.38;4964202;28;20047;-85
2021/12/09 05:15:59;;;;;;;104.68;46.38;;;;;;;-2.21;77.91;94726.91;4975377;28;20236;-85
2021/12/09 05:18:27;;;;;;;108.53;44.83;;;;;;;-2.47;77.93;94679.22;4954536;28;20208;-86
2021/12/09 05:20:54;;;;;;;111.07;48.08;;;;;;;-2.53;77.72;94655.91;4967582;28;20153;-85
2021/12/09 05:23:26;;;;;;;112.78;52.42;;;;;;;-6.20;77.78;94094.50;4962081;28;20048;-85
2021/12/09 05:25:52;;;;;;;125.82;52.88;;;;;;;-4.77;77.36;94374.56;4949598;28;20031;-85
2021/12/09 05:28:19;;;;;;;132.40;54.40;;;;;;;-4.19;77.96;94506.75;4972167;28;20042;-85
2021/12/09 05:33:42;;;;;;;136.55;56.97;;;;;;;-5.70;77.68;94191.22;4977646;28;20367;-88
2021/12/09 05:36:07;;;;;;;145.05;59.72;;;;;;;-1.57;77.90;94839.41;4951410;28;20039;-86
2021/12/09 05:38:33;;;;;;;167.30;68.07;;;;;;;-1.47;77.81;94817.34;4944676;28;20415;-87
2021/12/09 05:40:59;;;;;;;148.15;65.13;;;;;;;-3.85;77.75;94521.31;4948368;28;20050;-88
2021/12/09 05:43:26;;;;;;;165.82;72.05;;;;;;;-3.29;77.83;94541.56;4957667;28;20055;-88
2021/12/09 05:45:52;;;;;;;182.77;77.88;;;;;;;-6.47;77.65;94086.72;4932754;29;20093;-88
2021/12/09 05:48:18;;;;;;;184.25;74.60;;;;;;;-3.60;77.65;94530.06;4933080;29;20043;-87
2021/12/09 05:50:46;;;;;;;180.77;73.07;;;;;;;-6.51;77.56;94126.00;4930122;29;20082;-88
2021/12/09 05:53:15;;;;;;;163.18;68.50;;;;;;;-8.26;77.48;93921.41;4942823;28;20054;-88
2021/12/09 05:55:44;;;;;;;164.43;69.43;;;;;;;-8.18;78.18;93859.53;4941274;29;20046;-88
2021/12/09 05:58:17;;;;;;;180.90;73.13;;;;;;;-6.85;77.45;94103.66;4942045;29;20051;-88
2021/12/09 06:00:43;;;;;;;179.80;74.22;;;;;;;-5.88;77.94;94289.94;4942526;28;21017;-88
2021/12/09 06:03:09;;;;;;;172.68;73.18;;;;;;;-2.50;77.59;94761.91;4944816;28;20491;-88
2021/12/09 06:05:35;;;;;;;157.93;64.35;;;;;;;-3.66;77.39;94571.53;4926188;29;20079;-88
2021/12/09 06:08:01;;;;;;;164.98;68.13;;;;;;;-4.70;76.82;94423.72;4924350;29;20399;-88
2021/12/09 06:10:27;;;;;;;145.23;60.95;;;;;;;-7.45;76.47;94012.47;4922223;29;20051;-88
2021/12/09 06:12:58;;;;;;;143.60;62.17;;;;;;;-5.66;77.07;94337.84;4922475;29;20080;-88
2021/12/09 06:15:23;;;;;;;147.45;64.63;;;;;;;-7.03;77.20;94096.47;4924532;28;20143;-88
2021/12/09 06:17:49;;;;;;;154.50;65.35;;;;;;;-4.13;77.13;94489.66;4926407;29;20039;-87
2021/12/09 06:20:14;;;;;;;141.82;63.00;;;;;;;-3.58;76.71;94543.59;4914177;29;20574;-87
2021/12/09 06:22:41;;;;;;;155.07;63.05;;;;;;;-5.74;76.64;94247.63;4935981;29;20589;-88
2021/12/09 06:25:19;;;;;;;;;;;;;;;;;;;;;
2021/12/09 06:27:48;;;;;;;133.45;58.05;;;;;;;-7.48;75.84;94028.31;4938117;28;20454;-88
2021/12/09 06:30:15;;;;;;;138.23;59.22;;;;;;;-7.28;77.10;94046.41;4937586;29;20031;-87
2021/12/09 06:32:41;;;;;;;141.32;60.58;;;;;;;-4.02;76.66;94621.91;4938436;29;20061;-87
2021/12/09 06:35:14;;;;;;;135.13;57.63;;;;;;;-4.02;76.94;94540.84;4939699;29;20066;-87
2021/12/09 06:37:58;;;;;;;141.38;57.72;;;;;;;-4.97;76.93;94396.25;4930287;29;20255;-87
2021/12/09 06:40:35;;;;;;;119.75;49.00;;;;;;;-6.95;76.93;94108.41;4941516;28;20101;-87
2021/12/09 06:43:05;;;;;;;121.25;49.22;;;;;;;-4.22;76.75;94550.41;4932782;28;20574;-88
2021/12/09 06:45:34;;;;;;;113.13;47.33;;;;;;;-4.24;77.31;94498.00;4931791;28;20446;-88
2021/12/09 06:48:00;;;;;;;115.50;46.10;;;;;;;-6.91;76.75;94035.63;4945448;28;20290;-87
2021/12/09 06:50:37;;;;;;;113.25;49.03;;;;;;;-1.37;77.12;94886.13;4941828;28;20589;-88
2021/12/09 06:53:09;;;;;;;124.25;48.47;;;;;;;-1.38;77.54;94878.53;4940725;28;20129;-88
2021/12/09 06:55:38;;;;;;;122.05;48.42;;;;;;;-5.93;77.33;94168.38;4946530;28;20038;-88
2021/12/09 06:58:04;;;;;;;115.70;49.45;;;;;;;-1.25;77.57;94887.09;4963415;28;20047;-88
2021/12/09 07:00:31;;;;;;;124.10;51.95;;;;;;;-1.86;76.63;94761.13;4953400;28;20423;-88
2021/12/09 07:02:57;;;;;;;108.60;48.17;;;;;;;-2.88;76.50;94619.06;4946836;28;20133;-88
2021/12/09 07:05:26;;;;;;;119.68;50.70;;;;;;;-3.59;76.36;94466.88;4964405;28;20130;-87
2021/12/09 07:07:53;;;;;;;133.88;51.92;;;;;;;-1.40;76.81;94838.94;4946053;28;20137;-88
2021/12/09 07:10:21;;;;;;;126.45;48.78;;;;;;;-2.12;77.20;94720.44;4958811;28;20108;-88
2021/12/09 07:12:48;;;;;;;133.45;51.35;;;;;;;-3.24;76.99;94562.47;4938005;28;20067;-87
2021/12/09 07:15:16;;;;;;;135.40;50.80;;;;;;;-1.25;77.33;94887.09;4947136;28;20050;-87
2021/12/09 07:17:42;;;;;;;143.10;54.05;;;;;;;-1.76;78.32;94814.28;4954438;28;20573;-87
2021/12/09 07:20:13;;;;;;;136.73;54.95;;;;;;;-3.34;77.85;94539.56;4938698;28;20133;-87
2021/12/09 07:22:39;;;;;;;132.57;55.10;;;;;;;-6.53;77.10;94060.91;4967855;28;20042;-88
2021/12/09 07:25:06;;;;;;;97.50;39.58;;;;;;;-2.75;77.45;94596.44;4944543;28;20282;-86
2021/12/09 07:27:33;;;;;;;112.88;39.22;;;;;;;-2.36;78.44;94662.19;4954789;28;20043;-86
2021/12/09 07:29:59;;;;;;;103.63;38.00;;;;;;;-0.81;78.42;94960.94;4970642;28;20237;-87
2021/12/09 07:32:26;;;;;;;114.20;39.38;;;;;;;-4.42;78.28;94403.63;4969784;28;20046;-86
2021/12/09 07:34:53;;;;;;;110.57;40.90;;;;;;;-7.05;78.99;93941.25;4951719;28;20513;-87
2021/12/09 07:37:18;;;;;;;107.38;41.13;;;;;;;-0.87;78.73;94861.03;4953359;28;20576;-86
2021/12/09 07:39:44;;;;;;;104.80;42.08;;;;;;;-6.27;77.89;94048.84;4954855;28;20050;-86
2021/12/09 07:42:14;;;;;;;111.57;42.58;;;;;;;-3.87;78.51;94401.53;4944999;28;20046;-87
2021/12/09 07:44:45;;;;;;;101.40;38.90;;;;;;;-6.06;77.67;94018.66;4954422;28;20051;-87
2021/12/09 07:47:12;;;;;;;93.07;36.95;;;;;;;-2.44;77.71;94579.38;4972440;28;20053;-88
2021/12/09 07:49:42;;;;;;;96.18;38.92;;;;;;;-2.89;78.44;94586.31;4958630;28;20405;-87
2021/12/09 07:52:08;;;;;;;88.68;34.17;;;;;;;-5.59;77.42;94075.19;4954836;28;20031;-87
2021/12/09 07:54:35;;;;;;;87.93;34.80;;;;;;;-4.74;77.08;94226.75;4948777;28;21001;-87
2021/12/09 07:57:52;;;;;;;82.38;32.08;;;;;;;-5.93;76.88;94065.91;4952664;28;20121;-87
2021/12/09 08:00:23;;;;;;;107.78;37.47;;;;;;;-3.77;76.95;94344.13;4953607;28;20038;-89
2021/12/09 08:02:53;;;;;;;101.43;39.28;;;;;;;-2.30;76.71;94567.09;4977073;28;20042;-89
2021/12/09 08:05:24;;;;;;;120.10;44.60;;;;;;;-5.68;76.78;94023.94;4960312;28;20070;-89
2021/12/09 08:07:51;;;;;;;112.70;39.55;;;;;;;-0.86;77.77;94807.97;4964554;28;20053;-88
2021/12/09 08:10:19;;;;;;;96.82;39.97;;;;;;;-5.51;76.84;94066.44;4973709;28;20102;-89
2021/12/09 08:12:46;;;;;;;108.97;39.22;;;;;;;-2.55;77.15;94544.47;4958963;28;20042;-89
2021/12/09 08:15:16;;;;;;;102.32;40.28;;;;;;;-2.82;78.60;94613.84;4987735;28;20304;-89
2021/12/09 08:18:01;;;;;;;96.38;37.22;;;;;;;-5.60;77.80;94124.47;4946780;28;20113;-88
2021/12/09 08:20:29;;;;;;;122.60;44.50;;;;;;;-4.97;77.22;94111.81;4950271;28;20444;-89
2021/12/09 08:22:55;;;;;;;123.55;47.60;;;;;;;-5.53;76.87;94040.78;4941853;28;20043;-87
2021/12/09 08:25:47;;;;;;;137.20;52.67;;;;;;;-5.24;76.43;94033.53;4958137;28;20419;-88
2021/12/09 08:28:17;;;;;;;158.23;62.92;;;;;;;-6.01;74.96;93964.63;4973368;28;20897;-88
2021/12/09 08:30:53;;;;;;;202.00;79.35;;;;;;;0.10;75.71;94841.38;4956201;28;20643;-89
2021/12/09 08:33:24;;;;;;;177.55;68.32;;;;;;;-1.77;74.95;94537.13;4958414;28;20057;-87
2021/12/09 08:35:50;;;;;;;156.32;62.65;;;;;;;-4.68;74.77;94161.25;4952199;28;20938;-88
2021/12/09 08:38:18;;;;;;;165.40;65.60;;;;;;;-4.76;74.11;94096.81;4967568;28;20054;-88
2021/12/09 08:40:47;;;;;;;174.50;66.43;;;;;;;-1.75;75.45;94568.09;4952430;28;20038;-88
2021/12/09 08:43:34;;;;;;;180.38;67.70;;;;;;;-2.34;74.43;94479.19;4958762;28;20491;-88
2021/12/09 08:46:00;;;;;;;167.43;62.47;;;;;;;-0.84;74.87;94644.50;4951529;28;20043;-89
2021/12/09 08:48:26;;;;;;;166.82;63.30;;;;;;;-2.78;75.42;94380.69;4961402;28;20151;-89
2021/12/09 08:50:53;;;;;;;149.80;61.35;;;;;;;-2.44;75.05;94389.81;4954324;28;20224;-88
2021/12/09 08:53:22;;;;;;;135.20;54.22;;;;;;;-1.68;74.93;94582.63;4966873;28;20377;-87
2021/12/09 08:55:48;;;;;;;150.65;55.67;;;;;;;-1.12;75.27;94648.59;4952324;28;20141;-87
2021/12/09 08:58:15;;;;;;;128.88;50.45;;;;;;;-2.20;76.41;94516.25;4954009;28;20230;-89
2021/12/09 09:00:43;;;;;;;113.13;46.60;;;;;;;-5.34;75.51;93940.94;4941685;28;20043;-88
2021/12/09 09:03:13;;;;;;;100.35;42.55;;;;;;;-2.07;75.41;94531.78;4977830;28;20035;-88
2021/12/09 09:05:40;;;;;;;104.43;39.67;;;;;;;-2.67;75.02;94382.56;4961970;28;20038;-88
2021/12/09 09:08:07;;;;;;;94.95;40.40;;;;;;;-1.34;75.34;94537.13;4954957;28;20165;-88
2021/12/09 09:10:42;;;;;;;98.88;39.75;;;;;;;0.06;74.01;94729.94;4960005;28;20051;-89
2021/12/09 09:13:07;;;;;;;92.20;38.63;;;;;;;-3.93;72.42;94086.34;4944594;28;20124;-87
2021/12/09 09:15:36;;;;;;;95.18;38.60;;;;;;;-0.99;73.07;94554.81;4948153;28;20422;-88
2021/12/09 09:18:06;;;;;;;93.80;38.83;;;;;;;-3.53;72.63;94123.91;4965079;28;20506;-89
2021/12/09 09:20:37;;;;;;;94.68;42.78;;;;;;;-3.90;71.74;94031.56;4950356;28;20347;-89
2021/12/09 09:23:03;;;;;;;99.88;41.88;;;;;;;-3.03;72.00;94193.88;4964488;28;20503;-88
2021/12/09 09:25:29;;;;;;;102.15;44.83;;;;;;;-0.77;71.89;94480.44;4963073;28;20458;-88
2021/12/09 09:28:00;;;;;;;128.65;46.92;;;;;;;-0.88;72.29;94421.31;4961072;28;20038;-87
2021/12/09 09:30:35;;;;;;;118.93;46.73;;;;;;;-0.98;71.24;94332.53;4963096;28;20046;-88
2021/12/09 09:33:02;;;;;;;122.90;48.72;;;;;;;-2.74;70.71;94063.44;4951210;28;20744;-89
2021/12/09 09:35:28;;;;;;;110.57;46.55;;;;;;;-1.25;69.96;94324.31;4945364;28;20077;-89
2021/12/09 09:37:54;;;;;;;130.07;50.88;;;;;;;-3.20;70.73;94068.34;4946184;28;20042;-89
2021/12/09 09:40:38;;;;;;;125.07;50.53;;;;;;;-1.66;71.69;94320.66;4944869;28;20336;-89
2021/12/09 09:43:15;;;;;;;148.63;58.10;;;;;;;0.87;72.30;94735.44;4945476;28;21625;-90
2021/12/09 09:45:49;;;;;;;166.88;65.60;;;;;;;0.90;73.37;94762.91;4920151;28;20047;-87
2021/12/09 09:48:16;;;;;;;165.68;66.93;;;;;;;-0.97;73.43;94524.94;4924641;28;20484;-86
2021/12/09 09:50:42;;;;;;;176.57;69.97;;;;;;;-1.05;73.42;94467.97;4912766;28;20155;-89
2021/12/09 09:53:10;;;;;;;178.30;68.45;;;;;;;0.29;73.46;94694.31;4920870;28;20134;-87
2021/12/09 09:55:37;;;;;;;171.55;65.68;;;;;;;-1.99;73.56;94317.66;4943277;28;20368;-86
2021/12/09 09:58:03;;;;;;;160.15;64.75;;;;;;;-1.14;73.45;94403.44;4930286;29;20050;-89
2021/12/09 10:00:29;;;;;;;157.07;66.50;;;;;;;-3.93;73.42;93993.91;4933006;28;20043;-88
2021/12/09 10:02:55;;;;;;;170.82;67.28;;;;;;;-0.53;72.46;94426.59;4932441;28;20102;-88
2021/12/09 10:05:35;;;;;;;162.63;65.90;;;;;;;-3.65;72.58;93967.53;4938041;28;20086;-89
2021/12/09 10:08:04;;;;;;;148.80;61.45;;;;;;;-1.37;72.19;94243.63;4951943;28;20039;-89
2021/12/09 10:10:33;;;;;;;164.82;66.75;;;;;;;0.60;71.75;94543.75;4935676;28;20046;-88
2021/12/09 10:13:04;;;;;;;196.70;79.80;;;;;;;-0.77;71.81;94417.16;4930971;29;20039;-87
2021/12/09 10:15:49;;;;;;;224.65;86.95;;;;;;;1.10;73.18;94711.19;4948777;28;20071;-89
2021/12/09 10:18:33;;;;;;;220.60;83.95;;;;;;;-2.05;72.61;94263.94;4936626;28;20605;-89
2021/12/09 10:21:00;;;;;;;228.57;86.20;;;;;;;-4.10;73.00;93954.03;4949140;28;20027;-88
2021/12/09 10:23:33;;;;;;;212.40;83.53;;;;;;;-3.67;72.34;93997.28;4940214;28;20054;-88
2021/12/09 10:26:14;;;;;;;219.63;81.00;;;;;;;-3.84;72.63;93954.78;4938644;28;20050;-88
2021/12/09 10:28:50;;;;;;;210.73;80.72;;;;;;;-0.22;73.42;94628.78;4938886;29;20047;-88
2021/12/09 10:31:35;;;;;;;213.00;77.85;;;;;;;-0.98;73.10;94401.00;4931007;29;20972;-88
2021/12/09 10:36:46;;;;;;;202.77;72.32;;;;;;;-0.79;73.79;94420.78;4945187;29;20090;-88
2021/12/09 10:39:30;;;;;;;198.55;75.88;;;;;;;1.06;73.94;94723.09;4920987;28;20609;-87
2021/12/09 10:41:57;;;;;;;185.05;71.25;;;;;;;-1.01;73.44;94346.81;4927366;28;20085;-89
2021/12/09 10:44:32;;;;;;;202.25;71.40;;;;;;;-0.18;72.57;94484.81;4961766;28;20177;-88
2021/12/09 10:47:08;;;;;;;201.85;71.85;;;;;;;0.43;72.77;94553.25;4956494;28;20055;-87
2021/12/09 10:49:47;;;;;;;206.60;74.28;;;;;;;1.44;72.85;94735.75;4961750;28;20051;-89
2021/12/09 10:52:37;;;;;;;191.98;71.43;;;;;;;-1.59;71.83;94188.75;4959494;28;20093;-87
2021/12/09 10:55:09;;;;;;;185.98;70.38;;;;;;;0.83;72.04;94655.19;4953149;28;20534;-88
2021/12/09 10:57:35;;;;;;;191.90;69.65;;;;;;;0.65;71.80;94581.19;4947747;28;20554;-88
2021/12/09 11:00:20;;;;;;;191.93;70.93;;;;;;;1.42;73.06;94680.28;4961896;28;20080;-87
2021/12/09 11:02:59;;;;;;;187.05;71.07;;;;;;;-0.19;73.27;94493.66;4971506;28;20042;-88
2021/12/09 11:05:25;;;;;;;194.70;74.00;;;;;;;-1.41;73.11;94275.53;4989243;28;20062;-87
2021/12/09 11:07:54;;;;;;;196.93;71.45;;;;;;;-4.06;73.84;93893.06;4960123;28;20046;-90
2021/12/09 11:10:34;;;;;;;;;;;;;;;;;;;;;
2021/12/09 11:13:06;;;;;;;177.80;67.55;;;;;;;0.77;74.12;94701.25;4946043;28;20137;-89
2021/12/09 11:15:57;;;;;;;211.00;75.60;;;;;;;0.90;76.03;94661.91;4972599;28;20091;-89
2021/12/09 11:18:40;;;;;;;210.57;74.63;;;;;;;0.91;75.98;94683.59;4942291;28;20043;-89
2021/12/09 11:21:10;;;;;;;210.00;74.90;;;;;;;0.41;76.13;94599.66;4944951;28;20047;-89
2021/12/09 11:23:55;;;;;;;219.50;77.13;;;;;;;0.09;76.53;94563.41;4966354;28;20115;-87
2021/12/09 11:26:51;;;;;;;213.80;72.63;;;;;;;1.07;76.02;94665.41;4990224;28;20137;-87